sensor_id;sensor_type;location;lat;lon;timestamp;temperature;humidity
51500;DHT22;39101;53.478;6.158;2023-03-05T00:01:11;4.20;99.90
51500;DHT22;39101;53.478;6.158;2023-03-05T00:03:44;3.90;99.90
51500;DHT22;39101;53.478;6.158;2023-03-05T00:06:11;3.80;99.90
51500;DHT22;39101;53.478;6.158;2023-03-05T00:08:37;3.80;99.90
51500;DHT22;39101;53.478;6.158;2023-03-05T00:11:08;3.90;99.90
51500;DHT22;39101;53.478;6.158;2023-03-05T00:13:37;3.90;99.90
51500;DHT22;39101;53.478;6.158;2023-03-05T00:16:08;3.90;99.90
51500;DHT22;39101;53.478;6.158;2023-03-05T00:18:35;3.90;99.90
51500;DHT22;39101;53.478;6.158;2023-03-05T00:21:01;3.90;99.90
51500;DHT22;39101;53.478;6.158;2023-03-05T00:23:26;3.70;99.90
51500;DHT22;39101;53.478;6.158;2023-03-05T00:25:52;3.80;99.90
51500;DHT22;39101;53.478;6.158;2023-03-05T00:28:18;3.70;99.90
51500;DHT22;39101;53.478;6.158;2023-03-05T00:30:45;3.70;99.90
51500;DHT22;39101;53.478;6.158;2023-03-05T00:33:11;3.60;99.90
51500;DHT22;39101;53.478;6.158;2023-03-05T00:35:39;3.60;99.90
51500;DHT22;39101;53.478;6.158;2023-03-05T00:38:06;3.60;99.90
51500;DHT22;39101;53.478;6.158;2023-03-05T00:40:35;3.50;99.90
51500;DHT22;39101;53.478;6.158;2023-03-05T00:43:01;3.40;99.90
51500;DHT22;39101;53.478;6.158;2023-03-05T00:45:28;3.50;99.90
51500;DHT22;39101;53.478;6.158;2023-03-05T00:47:55;3.60;99.90
51500;DHT22;39101;53.478;6.158;2023-03-05T00:50:21;3.70;99.90
51500;DHT22;39101;53.478;6.158;2023-03-05T00:52:49;3.70;99.90
51500;DHT22;39101;53.478;6.158;2023-03-05T00:55:15;3.60;99.90
51500;DHT22;39101;53.478;6.158;2023-03-05T00:57:41;3.60;99.90
51500;DHT22;39101;53.478;6.158;2023-03-05T01:00:08;3.70;99.90
51500;DHT22;39101;53.478;6.158;2023-03-05T01:02:35;3.70;99.90
51500;DHT22;39101;53.478;6.158;2023-03-05T01:05:00;3.60;99.90
51500;DHT22;39101;53.478;6.158;2023-03-05T01:07:26;4.00;99.90
51500;DHT22;39101;53.478;6.158;2023-03-05T01:09:52;3.70;99.90
51500;DHT22;39101;53.478;6.158;2023-03-05T01:12:18;3.70;99.90
51500;DHT22;39101;53.478;6.158;2023-03-05T01:14:45;3.90;99.90
51500;DHT22;39101;53.478;6.158;2023-03-05T01:17:11;3.70;99.90
51500;DHT22;39101;53.478;6.158;2023-03-05T01:19:37;3.70;99.90
51500;DHT22;39101;53.478;6.158;2023-03-05T01:22:03;3.60;99.90
51500;DHT22;39101;53.478;6.158;2023-03-05T01:24:30;3.60;99.90
51500;DHT22;39101;53.478;6.158;2023-03-05T01:26:56;3.60;99.90
51500;DHT22;39101;53.478;6.158;2023-03-05T01:29:22;3.60;99.90
51500;DHT22;39101;53.478;6.158;2023-03-05T01:31:48;3.50;99.90
51500;DHT22;39101;53.478;6.158;2023-03-05T01:34:14;3.50;99.90
51500;DHT22;39101;53.478;6.158;2023-03-05T01:36:41;3.50;99.90
51500;DHT22;39101;53.478;6.158;2023-03-05T01:39:07;3.40;99.90
51500;DHT22;39101;53.478;6.158;2023-03-05T01:41:33;3.30;99.90
51500;DHT22;39101;53.478;6.158;2023-03-05T01:43:59;3.60;99.90
51500;DHT22;39101;53.478;6.158;2023-03-05T01:49:03;3.30;99.90
51500;DHT22;39101;53.478;6.158;2023-03-05T01:51:41;3.40;99.90
51500;DHT22;39101;53.478;6.158;2023-03-05T01:54:15;3.40;99.90
51500;DHT22;39101;53.478;6.158;2023-03-05T01:56:43;3.40;99.90
51500;DHT22;39101;53.478;6.158;2023-03-05T01:59:11;3.50;99.90
51500;DHT22;39101;53.478;6.158;2023-03-05T02:01:43;3.50;99.90
51500;DHT22;39101;53.478;6.158;2023-03-05T02:04:14;3.60;99.90
51500;DHT22;39101;53.478;6.158;2023-03-05T02:06:40;3.50;99.90
51500;DHT22;39101;53.478;6.158;2023-03-05T02:09:07;3.60;99.90
51500;DHT22;39101;53.478;6.158;2023-03-05T02:11:34;3.70;99.90
51500;DHT22;39101;53.478;6.158;2023-03-05T02:14:01;3.70;99.90
51500;DHT22;39101;53.478;6.158;2023-03-05T02:16:28;3.60;99.90
51500;DHT22;39101;53.478;6.158;2023-03-05T02:19:21;3.80;99.90
51500;DHT22;39101;53.478;6.158;2023-03-05T02:21:48;3.40;99.90
51500;DHT22;39101;53.478;6.158;2023-03-05T02:24:31;3.50;99.90
51500;DHT22;39101;53.478;6.158;2023-03-05T02:27:00;3.20;99.90
51500;DHT22;39101;53.478;6.158;2023-03-05T02:29:26;3.20;99.90
51500;DHT22;39101;53.478;6.158;2023-03-05T02:31:54;3.20;99.90
51500;DHT22;39101;53.478;6.158;2023-03-05T02:34:21;3.20;99.90
51500;DHT22;39101;53.478;6.158;2023-03-05T02:36:46;3.40;99.90
51500;DHT22;39101;53.478;6.158;2023-03-05T02:39:15;3.30;99.90
51500;DHT22;39101;53.478;6.158;2023-03-05T02:41:41;3.30;99.90
51500;DHT22;39101;53.478;6.158;2023-03-05T02:44:08;3.20;99.90
51500;DHT22;39101;53.478;6.158;2023-03-05T02:46:34;3.50;99.90
51500;DHT22;39101;53.478;6.158;2023-03-05T02:49:00;3.30;99.90
51500;DHT22;39101;53.478;6.158;2023-03-05T02:51:25;3.30;99.90
51500;DHT22;39101;53.478;6.158;2023-03-05T02:53:54;3.30;99.90
51500;DHT22;39101;53.478;6.158;2023-03-05T02:56:20;3.40;99.90
51500;DHT22;39101;53.478;6.158;2023-03-05T02:58:48;3.30;99.90
51500;DHT22;39101;53.478;6.158;2023-03-05T03:01:14;3.80;99.90
51500;DHT22;39101;53.478;6.158;2023-03-05T03:03:40;3.50;99.90
51500;DHT22;39101;53.478;6.158;2023-03-05T03:06:06;3.40;99.90
51500;DHT22;39101;53.478;6.158;2023-03-05T03:08:31;3.50;99.90
51500;DHT22;39101;53.478;6.158;2023-03-05T03:11:04;3.50;99.90
51500;DHT22;39101;53.478;6.158;2023-03-05T03:13:29;3.70;99.90
51500;DHT22;39101;53.478;6.158;2023-03-05T03:16:07;4.00;99.90
51500;DHT22;39101;53.478;6.158;2023-03-05T03:18:48;3.50;99.90
51500;DHT22;39101;53.478;6.158;2023-03-05T03:21:20;3.40;99.90
51500;DHT22;39101;53.478;6.158;2023-03-05T03:23:46;3.70;99.90
51500;DHT22;39101;53.478;6.158;2023-03-05T03:26:12;3.30;99.90
51500;DHT22;39101;53.478;6.158;2023-03-05T03:28:37;3.30;99.90
51500;DHT22;39101;53.478;6.158;2023-03-05T03:31:03;3.40;99.90
51500;DHT22;39101;53.478;6.158;2023-03-05T03:33:30;3.40;99.90
51500;DHT22;39101;53.478;6.158;2023-03-05T03:35:55;3.40;99.90
51500;DHT22;39101;53.478;6.158;2023-03-05T03:38:21;3.40;99.90
51500;DHT22;39101;53.478;6.158;2023-03-05T03:40:47;3.40;99.90
51500;DHT22;39101;53.478;6.158;2023-03-05T03:43:12;3.40;99.90
51500;DHT22;39101;53.478;6.158;2023-03-05T03:45:42;3.40;99.90
51500;DHT22;39101;53.478;6.158;2023-03-05T03:48:11;3.50;99.90
51500;DHT22;39101;53.478;6.158;2023-03-05T03:50:40;3.40;99.90
51500;DHT22;39101;53.478;6.158;2023-03-05T03:53:07;3.40;99.90
51500;DHT22;39101;53.478;6.158;2023-03-05T03:55:35;3.40;99.90
51500;DHT22;39101;53.478;6.158;2023-03-05T03:58:02;3.40;99.90
51500;DHT22;39101;53.478;6.158;2023-03-05T04:00:28;3.40;99.90
51500;DHT22;39101;53.478;6.158;2023-03-05T04:02:55;3.50;99.90
51500;DHT22;39101;53.478;6.158;2023-03-05T04:05:21;3.50;99.90
51500;DHT22;39101;53.478;6.158;2023-03-05T04:07:46;3.60;99.90
51500;DHT22;39101;53.478;6.158;2023-03-05T04:10:12;3.60;99.90
51500;DHT22;39101;53.478;6.158;2023-03-05T04:12:38;3.70;99.90
51500;DHT22;39101;53.478;6.158;2023-03-05T04:15:04;4.00;99.90
51500;DHT22;39101;53.478;6.158;2023-03-05T04:17:36;3.50;99.90
51500;DHT22;39101;53.478;6.158;2023-03-05T04:20:05;3.40;99.90
51500;DHT22;39101;53.478;6.158;2023-03-05T04:22:31;3.30;99.90
51500;DHT22;39101;53.478;6.158;2023-03-05T04:24:57;3.30;99.90
51500;DHT22;39101;53.478;6.158;2023-03-05T04:27:23;3.20;99.90
51500;DHT22;39101;53.478;6.158;2023-03-05T04:29:51;3.40;99.90
51500;DHT22;39101;53.478;6.158;2023-03-05T04:32:16;3.50;99.90
51500;DHT22;39101;53.478;6.158;2023-03-05T04:34:48;3.20;99.90
51500;DHT22;39101;53.478;6.158;2023-03-05T04:37:13;3.10;99.90
51500;DHT22;39101;53.478;6.158;2023-03-05T04:39:39;3.10;99.90
51500;DHT22;39101;53.478;6.158;2023-03-05T04:42:05;3.10;99.90
51500;DHT22;39101;53.478;6.158;2023-03-05T04:44:31;3.10;99.90
51500;DHT22;39101;53.478;6.158;2023-03-05T04:46:56;3.10;99.90
51500;DHT22;39101;53.478;6.158;2023-03-05T04:49:23;3.20;99.90
51500;DHT22;39101;53.478;6.158;2023-03-05T04:51:49;3.20;99.90
51500;DHT22;39101;53.478;6.158;2023-03-05T04:54:15;3.10;99.90
51500;DHT22;39101;53.478;6.158;2023-03-05T04:56:40;3.20;99.90
51500;DHT22;39101;53.478;6.158;2023-03-05T04:59:06;3.30;99.90
51500;DHT22;39101;53.478;6.158;2023-03-05T05:01:32;3.70;99.90
51500;DHT22;39101;53.478;6.158;2023-03-05T05:04:00;3.30;99.90
51500;DHT22;39101;53.478;6.158;2023-03-05T05:06:26;3.30;99.90
51500;DHT22;39101;53.478;6.158;2023-03-05T05:08:51;3.30;99.90
51500;DHT22;39101;53.478;6.158;2023-03-05T05:11:17;3.30;99.90
51500;DHT22;39101;53.478;6.158;2023-03-05T05:13:46;3.30;99.90
51500;DHT22;39101;53.478;6.158;2023-03-05T05:16:13;3.20;99.90
51500;DHT22;39101;53.478;6.158;2023-03-05T05:18:40;3.20;99.90
51500;DHT22;39101;53.478;6.158;2023-03-05T05:21:08;3.30;99.90
51500;DHT22;39101;53.478;6.158;2023-03-05T05:23:34;3.30;99.90
51500;DHT22;39101;53.478;6.158;2023-03-05T05:26:02;3.30;99.90
51500;DHT22;39101;53.478;6.158;2023-03-05T05:28:28;3.40;99.90
51500;DHT22;39101;53.478;6.158;2023-03-05T05:30:55;3.40;99.90
51500;DHT22;39101;53.478;6.158;2023-03-05T05:33:22;3.70;99.90
51500;DHT22;39101;53.478;6.158;2023-03-05T05:35:48;3.30;99.90
51500;DHT22;39101;53.478;6.158;2023-03-05T05:38:14;3.30;99.90
51500;DHT22;39101;53.478;6.158;2023-03-05T05:40:40;3.30;99.90
51500;DHT22;39101;53.478;6.158;2023-03-05T05:43:06;3.30;99.90
51500;DHT22;39101;53.478;6.158;2023-03-05T05:45:33;3.30;99.90
51500;DHT22;39101;53.478;6.158;2023-03-05T05:47:58;3.30;99.90
51500;DHT22;39101;53.478;6.158;2023-03-05T05:50:24;3.20;99.90
51500;DHT22;39101;53.478;6.158;2023-03-05T05:52:51;3.30;99.90
51500;DHT22;39101;53.478;6.158;2023-03-05T05:55:17;3.30;99.90
51500;DHT22;39101;53.478;6.158;2023-03-05T05:57:43;3.30;99.90
51500;DHT22;39101;53.478;6.158;2023-03-05T06:00:11;3.20;99.90
51500;DHT22;39101;53.478;6.158;2023-03-05T06:02:41;3.30;99.90
51500;DHT22;39101;53.478;6.158;2023-03-05T06:05:10;3.30;99.90
51500;DHT22;39101;53.478;6.158;2023-03-05T06:07:36;3.30;99.90
51500;DHT22;39101;53.478;6.158;2023-03-05T06:10:02;3.30;99.90
51500;DHT22;39101;53.478;6.158;2023-03-05T06:12:28;3.30;99.90
51500;DHT22;39101;53.478;6.158;2023-03-05T06:14:54;3.30;99.90
51500;DHT22;39101;53.478;6.158;2023-03-05T06:17:20;3.40;99.90
51500;DHT22;39101;53.478;6.158;2023-03-05T06:19:45;3.40;99.90
51500;DHT22;39101;53.478;6.158;2023-03-05T06:22:13;3.40;99.90
51500;DHT22;39101;53.478;6.158;2023-03-05T06:24:38;3.40;99.90
51500;DHT22;39101;53.478;6.158;2023-03-05T06:27:05;3.50;99.90
51500;DHT22;39101;53.478;6.158;2023-03-05T06:29:31;3.50;99.90
51500;DHT22;39101;53.478;6.158;2023-03-05T06:31:57;3.50;99.90
51500;DHT22;39101;53.478;6.158;2023-03-05T06:34:23;3.50;99.90
51500;DHT22;39101;53.478;6.158;2023-03-05T06:36:48;3.60;99.90
51500;DHT22;39101;53.478;6.158;2023-03-05T06:39:15;3.60;99.90
51500;DHT22;39101;53.478;6.158;2023-03-05T06:41:41;3.60;99.90
51500;DHT22;39101;53.478;6.158;2023-03-05T06:44:07;3.70;99.90
51500;DHT22;39101;53.478;6.158;2023-03-05T06:46:34;3.70;99.90
51500;DHT22;39101;53.478;6.158;2023-03-05T06:49:05;3.80;99.90
51500;DHT22;39101;53.478;6.158;2023-03-05T06:51:34;3.90;99.90
51500;DHT22;39101;53.478;6.158;2023-03-05T06:54:03;4.30;99.90
51500;DHT22;39101;53.478;6.158;2023-03-05T06:56:29;3.90;99.90
51500;DHT22;39101;53.478;6.158;2023-03-05T06:58:55;3.90;99.90
51500;DHT22;39101;53.478;6.158;2023-03-05T07:01:23;3.90;99.90
51500;DHT22;39101;53.478;6.158;2023-03-05T07:03:50;4.00;99.90
51500;DHT22;39101;53.478;6.158;2023-03-05T07:06:17;3.90;99.90
51500;DHT22;39101;53.478;6.158;2023-03-05T07:08:43;3.90;99.90
51500;DHT22;39101;53.478;6.158;2023-03-05T07:11:18;4.00;99.90
51500;DHT22;39101;53.478;6.158;2023-03-05T07:13:45;4.00;99.90
51500;DHT22;39101;53.478;6.158;2023-03-05T07:16:20;4.10;99.90
51500;DHT22;39101;53.478;6.158;2023-03-05T07:18:46;4.10;99.90
51500;DHT22;39101;53.478;6.158;2023-03-05T07:21:32;4.40;99.90
51500;DHT22;39101;53.478;6.158;2023-03-05T07:24:05;4.30;99.90
51500;DHT22;39101;53.478;6.158;2023-03-05T07:26:32;4.20;99.90
51500;DHT22;39101;53.478;6.158;2023-03-05T07:28:59;4.10;99.90
51500;DHT22;39101;53.478;6.158;2023-03-05T07:31:25;4.20;99.90
51500;DHT22;39101;53.478;6.158;2023-03-05T07:34:00;4.20;99.90
51500;DHT22;39101;53.478;6.158;2023-03-05T07:36:27;4.40;99.90
51500;DHT22;39101;53.478;6.158;2023-03-05T07:38:53;4.20;99.90
51500;DHT22;39101;53.478;6.158;2023-03-05T07:41:20;4.20;99.90
51500;DHT22;39101;53.478;6.158;2023-03-05T07:43:51;4.30;99.90
51500;DHT22;39101;53.478;6.158;2023-03-05T07:46:19;4.30;99.90
51500;DHT22;39101;53.478;6.158;2023-03-05T07:48:45;4.30;99.90
51500;DHT22;39101;53.478;6.158;2023-03-05T07:51:17;4.60;99.90
51500;DHT22;39101;53.478;6.158;2023-03-05T07:53:44;4.40;99.90
51500;DHT22;39101;53.478;6.158;2023-03-05T07:56:10;4.40;99.90
51500;DHT22;39101;53.478;6.158;2023-03-05T07:58:36;4.80;99.90
51500;DHT22;39101;53.478;6.158;2023-03-05T08:01:02;4.50;99.90
51500;DHT22;39101;53.478;6.158;2023-03-05T08:03:30;4.60;99.90
51500;DHT22;39101;53.478;6.158;2023-03-05T08:05:56;4.70;99.90
51500;DHT22;39101;53.478;6.158;2023-03-05T08:08:22;4.70;99.90
51500;DHT22;39101;53.478;6.158;2023-03-05T08:10:47;4.80;99.90
51500;DHT22;39101;53.478;6.158;2023-03-05T08:13:16;4.80;99.90
51500;DHT22;39101;53.478;6.158;2023-03-05T08:15:42;4.70;99.90
51500;DHT22;39101;53.478;6.158;2023-03-05T08:18:07;4.60;99.90
51500;DHT22;39101;53.478;6.158;2023-03-05T08:20:36;4.50;99.90
51500;DHT22;39101;53.478;6.158;2023-03-05T08:23:02;4.40;99.90
51500;DHT22;39101;53.478;6.158;2023-03-05T08:25:28;4.60;99.90
51500;DHT22;39101;53.478;6.158;2023-03-05T08:28:00;4.80;99.90
51500;DHT22;39101;53.478;6.158;2023-03-05T08:30:25;4.40;99.90
51500;DHT22;39101;53.478;6.158;2023-03-05T08:32:52;4.40;99.90
51500;DHT22;39101;53.478;6.158;2023-03-05T08:35:18;4.30;99.90
51500;DHT22;39101;53.478;6.158;2023-03-05T08:37:45;4.50;99.90
51500;DHT22;39101;53.478;6.158;2023-03-05T08:40:11;4.60;99.90
51500;DHT22;39101;53.478;6.158;2023-03-05T08:42:37;4.60;99.90
51500;DHT22;39101;53.478;6.158;2023-03-05T08:45:03;4.80;99.90
51500;DHT22;39101;53.478;6.158;2023-03-05T08:47:28;4.90;99.90
51500;DHT22;39101;53.478;6.158;2023-03-05T08:49:54;5.30;99.90
51500;DHT22;39101;53.478;6.158;2023-03-05T08:52:21;5.30;99.90
51500;DHT22;39101;53.478;6.158;2023-03-05T08:54:47;5.40;99.90
51500;DHT22;39101;53.478;6.158;2023-03-05T08:57:13;5.40;99.90
51500;DHT22;39101;53.478;6.158;2023-03-05T08:59:39;5.40;99.90
51500;DHT22;39101;53.478;6.158;2023-03-05T09:02:05;5.50;99.90
51500;DHT22;39101;53.478;6.158;2023-03-05T09:04:30;5.50;99.90
51500;DHT22;39101;53.478;6.158;2023-03-05T09:06:56;5.40;99.90
51500;DHT22;39101;53.478;6.158;2023-03-05T09:09:22;5.40;99.90
51500;DHT22;39101;53.478;6.158;2023-03-05T09:11:48;5.50;99.90
51500;DHT22;39101;53.478;6.158;2023-03-05T09:14:18;5.50;99.90
51500;DHT22;39101;53.478;6.158;2023-03-05T09:16:44;5.70;99.90
51500;DHT22;39101;53.478;6.158;2023-03-05T09:19:09;5.70;99.90
51500;DHT22;39101;53.478;6.158;2023-03-05T09:21:37;5.70;99.90
51500;DHT22;39101;53.478;6.158;2023-03-05T09:24:03;5.70;99.90
51500;DHT22;39101;53.478;6.158;2023-03-05T09:26:29;5.80;99.90
51500;DHT22;39101;53.478;6.158;2023-03-05T09:28:55;5.80;99.90
51500;DHT22;39101;53.478;6.158;2023-03-05T09:31:20;5.90;99.90
51500;DHT22;39101;53.478;6.158;2023-03-05T09:33:47;6.00;99.90
51500;DHT22;39101;53.478;6.158;2023-03-05T09:36:22;6.10;99.90
51500;DHT22;39101;53.478;6.158;2023-03-05T09:38:50;6.20;99.90
51500;DHT22;39101;53.478;6.158;2023-03-05T09:52:52;6.30;99.90
51500;DHT22;39101;53.478;6.158;2023-03-05T09:55:28;6.50;99.90
51500;DHT22;39101;53.478;6.158;2023-03-05T09:58:04;6.50;99.90
51500;DHT22;39101;53.478;6.158;2023-03-05T10:00:39;6.30;99.90
51500;DHT22;39101;53.478;6.158;2023-03-05T10:23:19;6.30;99.90
51500;DHT22;39101;53.478;6.158;2023-03-05T10:31:45;6.50;99.90
51500;DHT22;39101;53.478;6.158;2023-03-05T10:37:11;6.70;99.90
51500;DHT22;39101;53.478;6.158;2023-03-05T10:40:02;6.90;99.90
51500;DHT22;39101;53.478;6.158;2023-03-05T10:43:01;7.20;99.90
51500;DHT22;39101;53.478;6.158;2023-03-05T10:45:40;7.30;99.90
51500;DHT22;39101;53.478;6.158;2023-03-05T10:48:27;7.40;99.90
51500;DHT22;39101;53.478;6.158;2023-03-05T10:51:03;7.30;99.90
51500;DHT22;39101;53.478;6.158;2023-03-05T10:53:51;7.20;99.90
51500;DHT22;39101;53.478;6.158;2023-03-05T10:56:24;7.10;99.90
51500;DHT22;39101;53.478;6.158;2023-03-05T10:58:53;7.10;99.90
51500;DHT22;39101;53.478;6.158;2023-03-05T11:01:26;7.10;99.90
51500;DHT22;39101;53.478;6.158;2023-03-05T11:04:03;7.10;99.90
51500;DHT22;39101;53.478;6.158;2023-03-05T11:06:42;7.00;99.90
51500;DHT22;39101;53.478;6.158;2023-03-05T11:09:32;7.00;99.90
51500;DHT22;39101;53.478;6.158;2023-03-05T11:12:14;6.90;99.90
51500;DHT22;39101;53.478;6.158;2023-03-05T11:14:47;7.10;99.90
51500;DHT22;39101;53.478;6.158;2023-03-05T11:17:33;7.30;99.90
51500;DHT22;39101;53.478;6.158;2023-03-05T11:20:29;7.30;99.90
51500;DHT22;39101;53.478;6.158;2023-03-05T11:28:29;7.00;99.90
51500;DHT22;39101;53.478;6.158;2023-03-05T11:33:25;7.10;99.90
51500;DHT22;39101;53.478;6.158;2023-03-05T11:35:53;7.20;99.90
51500;DHT22;39101;53.478;6.158;2023-03-05T11:38:44;7.20;99.90
51500;DHT22;39101;53.478;6.158;2023-03-05T11:41:10;7.30;99.90
51500;DHT22;39101;53.478;6.158;2023-03-05T11:43:38;7.30;99.90
51500;DHT22;39101;53.478;6.158;2023-03-05T11:46:06;7.20;99.90
51500;DHT22;39101;53.478;6.158;2023-03-05T11:48:37;7.30;99.90
51500;DHT22;39101;53.478;6.158;2023-03-05T11:51:25;7.30;99.90
51500;DHT22;39101;53.478;6.158;2023-03-05T11:54:04;7.40;99.90
51500;DHT22;39101;53.478;6.158;2023-03-05T11:56:33;7.20;99.90
51500;DHT22;39101;53.478;6.158;2023-03-05T12:01:43;7.30;99.90
51500;DHT22;39101;53.478;6.158;2023-03-05T12:04:10;7.20;99.90
51500;DHT22;39101;53.478;6.158;2023-03-05T12:09:44;7.20;99.90
51500;DHT22;39101;53.478;6.158;2023-03-05T12:18:11;7.30;99.90
51500;DHT22;39101;53.478;6.158;2023-03-05T12:21:13;7.30;99.90
51500;DHT22;39101;53.478;6.158;2023-03-05T12:23:55;7.10;99.90
51500;DHT22;39101;53.478;6.158;2023-03-05T12:53:18;7.10;99.90
51500;DHT22;39101;53.478;6.158;2023-03-05T13:03:55;7.20;99.90
51500;DHT22;39101;53.478;6.158;2023-03-05T13:06:35;7.40;99.90
51500;DHT22;39101;53.478;6.158;2023-03-05T13:09:25;7.30;99.90
51500;DHT22;39101;53.478;6.158;2023-03-05T13:11:57;7.40;99.90
51500;DHT22;39101;53.478;6.158;2023-03-05T13:16:57;7.30;99.90
51500;DHT22;39101;53.478;6.158;2023-03-05T13:19:26;7.30;99.90
51500;DHT22;39101;53.478;6.158;2023-03-05T13:22:00;7.20;99.90
51500;DHT22;39101;53.478;6.158;2023-03-05T13:24:26;7.40;99.90
51500;DHT22;39101;53.478;6.158;2023-03-05T13:26:53;7.50;99.90
51500;DHT22;39101;53.478;6.158;2023-03-05T13:29:25;7.40;99.90
51500;DHT22;39101;53.478;6.158;2023-03-05T13:31:54;7.10;99.90
51500;DHT22;39101;53.478;6.158;2023-03-05T13:34:24;6.90;99.90
51500;DHT22;39101;53.478;6.158;2023-03-05T13:36:58;6.80;99.90
51500;DHT22;39101;53.478;6.158;2023-03-05T13:39:31;6.80;99.90
51500;DHT22;39101;53.478;6.158;2023-03-05T13:42:00;6.70;99.90
51500;DHT22;39101;53.478;6.158;2023-03-05T13:44:28;6.60;99.90
51500;DHT22;39101;53.478;6.158;2023-03-05T13:47:18;6.60;99.90
51500;DHT22;39101;53.478;6.158;2023-03-05T13:49:44;6.50;99.90
51500;DHT22;39101;53.478;6.158;2023-03-05T13:52:22;6.50;99.90
51500;DHT22;39101;53.478;6.158;2023-03-05T13:54:48;6.70;99.90
51500;DHT22;39101;53.478;6.158;2023-03-05T13:57:44;6.70;99.90
51500;DHT22;39101;53.478;6.158;2023-03-05T14:00:32;6.80;99.90
51500;DHT22;39101;53.478;6.158;2023-03-05T14:03:26;6.80;99.90
51500;DHT22;39101;53.478;6.158;2023-03-05T14:05:52;6.80;99.90
51500;DHT22;39101;53.478;6.158;2023-03-05T14:08:24;6.70;99.90
51500;DHT22;39101;53.478;6.158;2023-03-05T14:10:52;6.50;99.90
51500;DHT22;39101;53.478;6.158;2023-03-05T14:13:23;6.50;99.90
51500;DHT22;39101;53.478;6.158;2023-03-05T14:18:34;6.30;99.90
51500;DHT22;39101;53.478;6.158;2023-03-05T14:21:03;6.20;99.90
51500;DHT22;39101;53.478;6.158;2023-03-05T14:23:38;6.10;99.90
51500;DHT22;39101;53.478;6.158;2023-03-05T14:29:02;5.90;99.90
51500;DHT22;39101;53.478;6.158;2023-03-05T14:31:44;6.00;99.90
51500;DHT22;39101;53.478;6.158;2023-03-05T14:34:20;5.90;99.90
51500;DHT22;39101;53.478;6.158;2023-03-05T14:36:52;6.20;99.90
51500;DHT22;39101;53.478;6.158;2023-03-05T14:44:49;6.20;99.90
51500;DHT22;39101;53.478;6.158;2023-03-05T14:47:15;6.30;99.90
51500;DHT22;39101;53.478;6.158;2023-03-05T14:49:43;6.50;99.90
51500;DHT22;39101;53.478;6.158;2023-03-05T14:52:15;6.60;99.90
51500;DHT22;39101;53.478;6.158;2023-03-05T14:54:42;6.90;99.90
51500;DHT22;39101;53.478;6.158;2023-03-05T14:57:14;6.70;99.90
51500;DHT22;39101;53.478;6.158;2023-03-05T14:59:41;6.80;99.90
51500;DHT22;39101;53.478;6.158;2023-03-05T15:02:21;6.80;99.90
51500;DHT22;39101;53.478;6.158;2023-03-05T15:04:48;6.80;99.90
51500;DHT22;39101;53.478;6.158;2023-03-05T15:07:21;6.70;99.90
51500;DHT22;39101;53.478;6.158;2023-03-05T15:09:48;6.60;99.90
51500;DHT22;39101;53.478;6.158;2023-03-05T15:12:15;6.40;99.90
51500;DHT22;39101;53.478;6.158;2023-03-05T15:14:41;6.10;99.90
51500;DHT22;39101;53.478;6.158;2023-03-05T15:17:20;5.90;99.90
51500;DHT22;39101;53.478;6.158;2023-03-05T15:19:49;5.80;99.90
51500;DHT22;39101;53.478;6.158;2023-03-05T15:22:14;5.60;99.90
51500;DHT22;39101;53.478;6.158;2023-03-05T15:24:42;5.40;99.90
51500;DHT22;39101;53.478;6.158;2023-03-05T15:27:08;5.40;99.90
51500;DHT22;39101;53.478;6.158;2023-03-05T15:29:34;5.40;99.90
51500;DHT22;39101;53.478;6.158;2023-03-05T15:32:00;5.50;99.90
51500;DHT22;39101;53.478;6.158;2023-03-05T15:34:27;5.40;99.90
51500;DHT22;39101;53.478;6.158;2023-03-05T15:36:53;5.60;99.90
51500;DHT22;39101;53.478;6.158;2023-03-05T15:39:23;5.80;99.90
51500;DHT22;39101;53.478;6.158;2023-03-05T15:41:50;5.90;99.90
51500;DHT22;39101;53.478;6.158;2023-03-05T15:44:16;5.90;99.90
51500;DHT22;39101;53.478;6.158;2023-03-05T15:46:42;6.00;99.90
51500;DHT22;39101;53.478;6.158;2023-03-05T15:49:09;5.90;99.90
51500;DHT22;39101;53.478;6.158;2023-03-05T15:51:34;5.90;99.90
51500;DHT22;39101;53.478;6.158;2023-03-05T15:54:00;5.90;99.90
51500;DHT22;39101;53.478;6.158;2023-03-05T15:56:29;5.90;99.90
51500;DHT22;39101;53.478;6.158;2023-03-05T15:58:54;5.80;99.90
51500;DHT22;39101;53.478;6.158;2023-03-05T16:01:20;5.80;99.90
51500;DHT22;39101;53.478;6.158;2023-03-05T16:03:51;6.00;99.90
51500;DHT22;39101;53.478;6.158;2023-03-05T16:06:18;6.10;99.90
51500;DHT22;39101;53.478;6.158;2023-03-05T16:08:48;6.40;99.90
51500;DHT22;39101;53.478;6.158;2023-03-05T16:11:17;6.60;99.90
51500;DHT22;39101;53.478;6.158;2023-03-05T16:13:42;6.60;99.90
51500;DHT22;39101;53.478;6.158;2023-03-05T16:16:08;6.40;99.90
51500;DHT22;39101;53.478;6.158;2023-03-05T16:18:38;6.20;99.90
51500;DHT22;39101;53.478;6.158;2023-03-05T16:21:06;6.00;99.90
51500;DHT22;39101;53.478;6.158;2023-03-05T16:23:31;5.90;99.90
51500;DHT22;39101;53.478;6.158;2023-03-05T16:25:57;5.70;99.90
51500;DHT22;39101;53.478;6.158;2023-03-05T16:28:23;5.70;99.90
51500;DHT22;39101;53.478;6.158;2023-03-05T16:30:54;5.80;99.90
51500;DHT22;39101;53.478;6.158;2023-03-05T16:33:22;5.80;99.90
51500;DHT22;39101;53.478;6.158;2023-03-05T16:35:48;5.80;99.90
51500;DHT22;39101;53.478;6.158;2023-03-05T16:38:14;5.80;99.90
51500;DHT22;39101;53.478;6.158;2023-03-05T16:40:40;5.90;99.90
51500;DHT22;39101;53.478;6.158;2023-03-05T16:43:06;5.70;99.90
51500;DHT22;39101;53.478;6.158;2023-03-05T16:45:31;5.70;99.90
51500;DHT22;39101;53.478;6.158;2023-03-05T16:47:58;5.70;99.90
51500;DHT22;39101;53.478;6.158;2023-03-05T16:50:24;5.60;99.90
51500;DHT22;39101;53.478;6.158;2023-03-05T16:52:50;5.50;99.90
51500;DHT22;39101;53.478;6.158;2023-03-05T16:55:15;5.50;99.90
51500;DHT22;39101;53.478;6.158;2023-03-05T16:57:41;5.30;99.90
51500;DHT22;39101;53.478;6.158;2023-03-05T17:00:08;5.30;99.90
51500;DHT22;39101;53.478;6.158;2023-03-05T17:02:36;5.30;99.90
51500;DHT22;39101;53.478;6.158;2023-03-05T17:05:02;5.10;99.90
51500;DHT22;39101;53.478;6.158;2023-03-05T17:07:28;5.10;99.90
51500;DHT22;39101;53.478;6.158;2023-03-05T17:09:54;5.00;99.90
51500;DHT22;39101;53.478;6.158;2023-03-05T17:12:21;5.10;99.90
51500;DHT22;39101;53.478;6.158;2023-03-05T17:14:46;5.00;99.90
51500;DHT22;39101;53.478;6.158;2023-03-05T17:17:12;5.00;99.90
51500;DHT22;39101;53.478;6.158;2023-03-05T17:19:38;5.00;99.90
51500;DHT22;39101;53.478;6.158;2023-03-05T17:22:04;5.00;99.90
51500;DHT22;39101;53.478;6.158;2023-03-05T17:24:30;4.90;99.90
51500;DHT22;39101;53.478;6.158;2023-03-05T17:26:58;4.80;99.90
51500;DHT22;39101;53.478;6.158;2023-03-05T17:29:24;4.70;99.90
51500;DHT22;39101;53.478;6.158;2023-03-05T17:31:50;4.80;99.90
51500;DHT22;39101;53.478;6.158;2023-03-05T17:34:20;4.70;99.90
51500;DHT22;39101;53.478;6.158;2023-03-05T17:36:46;4.70;99.90
51500;DHT22;39101;53.478;6.158;2023-03-05T17:39:15;4.70;99.90
51500;DHT22;39101;53.478;6.158;2023-03-05T17:41:41;4.70;99.90
51500;DHT22;39101;53.478;6.158;2023-03-05T17:44:06;4.70;99.90
51500;DHT22;39101;53.478;6.158;2023-03-05T17:46:32;4.70;99.90